SIS302 VNLK-VNLK
Flight info
| Callsign | SIS302 |
|---|---|
| Flight time | 0h 13m |
| Altitude | 9500 |
| Route | LOCAL VFR |
| Aircraft | CC19/L-V/N |
Departure
| Time | 2025-04-30 10:26 |
|---|---|
| Airport | Tenzing-Hillary Airport (VNLK) |
Arrival
| Time | 2025-04-30 10:39 |
|---|---|
| Airport | Tenzing-Hillary Airport (VNLK) |
| Time | Latitude | Longitude | Altitude | Speed | Heading |
|---|---|---|---|---|---|
| 2025-04-30 10:17 | 27.68773 | 86.73186 | 9452 ft | 0 kts | 244° |
| 2025-04-30 10:19 | 27.68772 | 86.73182 | 9448 ft | 4 kts | 244° |
| 2025-04-30 10:19 | 27.68801 | 86.73172 | 9450 ft | 4 kts | 235° |
| 2025-04-30 10:19 | 27.68799 | 86.73169 | 9450 ft | 0 kts | 240° |
| 2025-04-30 10:20 | 27.68730 | 86.73049 | 9408 ft | 48 kts | 250° |
| 2025-04-30 10:21 | 27.68324 | 86.71863 | 9526 ft | 91 kts | 232° |
| 2025-04-30 10:21 | 27.67319 | 86.70848 | 9803 ft | 96 kts | 218° |
| 2025-04-30 10:22 | 27.65374 | 86.69559 | 9796 ft | 110 kts | 213° |
| 2025-04-30 10:23 | 27.64077 | 86.68688 | 9880 ft | 108 kts | 210° |
| 2025-04-30 10:23 | 27.63403 | 86.68342 | 9892 ft | 110 kts | 195° |
| 2025-04-30 10:23 | 27.61998 | 86.67659 | 9861 ft | 112 kts | 213° |
| 2025-04-30 10:24 | 27.60592 | 86.66765 | 9762 ft | 115 kts | 205° |
| 2025-04-30 10:24 | 27.59404 | 86.65610 | 9798 ft | 108 kts | 227° |
| 2025-04-30 10:25 | 27.58414 | 86.64585 | 10175 ft | 88 kts | 215° |
| 2025-04-30 10:25 | 27.57732 | 86.63564 | 10427 ft | 83 kts | 261° |
| 2025-04-30 10:26 | 27.58214 | 86.61774 | 10669 ft | 96 kts | 239° |
| 2025-04-30 10:27 | 27.57083 | 86.60684 | 10344 ft | 110 kts | 221° |
| 2025-04-30 10:27 | 27.55709 | 86.59618 | 9668 ft | 114 kts | 209° |
| 2025-04-30 10:28 | 27.54230 | 86.59031 | 9054 ft | 122 kts | 180° |
| 2025-04-30 10:28 | 27.52665 | 86.58877 | 8352 ft | 100 kts | 195° |
| 2025-04-30 10:29 | 27.51654 | 86.58447 | 8130 ft | 41 kts | 192° |
| 2025-04-30 10:29 | 27.51605 | 86.58424 | 8132 ft | 31 kts | 23° |
| 2025-04-30 10:30 | 27.52451 | 86.58601 | 8292 ft | 76 kts | 353° |
| 2025-04-30 10:30 | 27.54047 | 86.58728 | 8880 ft | 78 kts | 354° |
| 2025-04-30 10:31 | 27.54610 | 86.58789 | 9054 ft | 85 kts | 13° |
| 2025-04-30 10:31 | 27.55712 | 86.59387 | 9413 ft | 90 kts | 40° |
| 2025-04-30 10:32 | 27.56740 | 86.60190 | 9804 ft | 92 kts | 28° |
| 2025-04-30 10:32 | 27.57845 | 86.60897 | 10110 ft | 92 kts | 31° |
| 2025-04-30 10:33 | 27.58644 | 86.61773 | 10403 ft | 81 kts | 42° |
| 2025-04-30 10:33 | 27.58490 | 86.62826 | 9872 ft | 86 kts | 51° |
| 2025-04-30 10:34 | 27.59708 | 86.64409 | 9718 ft | 84 kts | 51° |
| 2025-04-30 10:34 | 27.60630 | 86.65620 | 9765 ft | 114 kts | 51° |
| 2025-04-30 10:35 | 27.61490 | 86.67181 | 9747 ft | 120 kts | 60° |
| 2025-04-30 10:35 | 27.61975 | 86.67906 | 9823 ft | 120 kts | 41° |
| 2025-04-30 10:36 | 27.63503 | 86.68872 | 9194 ft | 121 kts | 19° |
| 2025-04-30 10:36 | 27.64850 | 86.69385 | 9311 ft | 100 kts | 21° |
| 2025-04-30 10:37 | 27.66206 | 86.70065 | 8594 ft | 129 kts | 15° |
| 2025-04-30 10:37 | 27.67286 | 86.71128 | 8658 ft | 88 kts | 38° |
| 2025-04-30 10:38 | 27.68086 | 86.71705 | 8882 ft | 83 kts | 56° |
| 2025-04-30 10:38 | 27.68592 | 86.72778 | 9260 ft | 61 kts | 65° |
| 2025-04-30 10:39 | 27.68764 | 86.73113 | 9451 ft | 15 kts | 63° |
| 2025-04-30 10:39 | 27.68748 | 86.73157 | 9455 ft | 0 kts | 64° |
| 2025-04-30 10:40 | 27.68752 | 86.73185 | 9454 ft | 1 kts | 314° |
| 2025-04-30 10:40 | 27.68771 | 86.73192 | 9455 ft | 6 kts | 251° |
| 2025-04-30 10:41 | 27.68711 | 86.73025 | 9396 ft | 54 kts | 236° |
| 2025-04-30 10:41 | 27.69151 | 86.72584 | 9597 ft | 78 kts | 61° |
| 2025-04-30 10:42 | 27.68666 | 86.72930 | 9365 ft | 97 kts | 245° |
| 2025-04-30 10:42 | 27.67809 | 86.72819 | 9536 ft | 101 kts | 77° |
| 2025-04-30 10:43 | 27.68699 | 86.73376 | 9818 ft | 78 kts | 301° |
| 2025-04-30 10:43 | 27.67993 | 86.72234 | 9179 ft | 119 kts | 231° |
| 2025-04-30 10:44 | 27.67735 | 86.72003 | 8886 ft | 100 kts | 219° |
| 2025-04-30 10:44 | 27.68318 | 86.71565 | 9034 ft | 110 kts | 82° |
| 2025-04-30 10:45 | 27.68619 | 86.72831 | 9282 ft | 55 kts | 65° |